Disclaimer

Please do not use the information listed here in-flight or in-navigation, as they are not provided to us by the airports but are provided by volunteers, so they might be outdated.

Search


Regions


Airport information page

Radio informations:
Tower (TWR) - 118.7 MHz
SAO PAULO APP - 119.8 MHz

Airport informations:
Latitude: 23° 30' 32.83" S
Longitude: 046° 38' 15.91" W
Elevation: 2368 feet - 722 meters
Operating hours: Remarks
Operating agency: Military-civil joint use airport
Timezone: UTC-3(-2DT)
Fuel: Jet A1, without icing nhibitor.

115/145 octane gasoline, leaded, MIL-L-5572F (PURPLE)

100/130 octane gasoline, leaded, MIL-L-5572F (GREEN)

Runway information:
12/30 - 5250 x 148 feet< - >1600 x 45 meters

Recent METARs:
SBMT 210100Z 11009KT 9999 BKN015 16/13 Q1021

Airport on the map: